Station: Wudinna Airport

  Atmospheric Gas Attenuation - ITU Rec 676-11   --------------- db/100km ---------------
Date Time Temp RH % AH g/m3 Dew Point Wind Direction Speed kph Gust kph Barometer mB Rainfall Since 9am 24GHz 47GHz 76GHz 122GHz 134GHz 241GHz
15 00:30 10.8 92 9.1 9.6 13 15 1020 3 20.8 27.9 43.8 114.9 109.9 378.1
15 00:20 11.1 93 9.37 10 15 15 1020.1 3 21.4 28.3 44.8 117.6 113.2 390.0
15 00:10 11.2 93 9.43 10.1 13 15 1020.1 3 21.5 28.3 45.0 118.1 113.9 392.4
15 00:00 11.2 93 9.43 10.1 13 17 1020.1 3 21.5 28.3 45.0 118.1 113.9 392.4
14 23:50 11.1 93 9.37 10 15 15 1020.1 3 21.4 28.3 44.8 117.6 113.2 390.0
14 23:40 10.7 93 9.14 9.6 11 13 1020.2 3 20.9 28.0 44.0 115.6 110.6 380.6
14 23:30 10.7 93 9.14 9.6 13 15 1020.2 3 20.9 28.0 44.0 115.6 110.6 380.6
14 23:20 10.8 93 9.19 9.7 13 13 1020.2 2.8 21.0 28.1 44.2 116.0 111.1 382.6
14 23:10 10.9 93 9.25 9.8 15 17 1020.1 2.8 21.1 28.1 44.4 116.5 111.8 385.0
14 23:00 11.1 93 9.37 10 13 15 1020 2.8 21.4 28.3 44.8 117.6 113.2 389.9
14 22:50 11.3 93 9.49 10.2 15 15 1019.8 2.8 21.6 28.4 45.2 118.6 114.6 394.8
14 22:40 11.1 93 9.37 10 15 15 1019.7 2.8 21.4 28.3 44.7 117.5 113.2 389.8
14 22:30 10.8 93 9.19 9.7 13 17 1019.6 2.8 21.0 28.0 44.1 115.9 111.1 382.4
14 22:20 10.5 92 8.92 9.3 13 13 1019.5 2.8 20.4 27.7 43.1 113.3 107.7 370.5
14 22:10 10.8 92 9.1 9.6 13 15 1019.4 2.8 20.8 27.9 43.7 114.9 109.8 377.9
14 22:00 11 92 9.21 9.8 13 15 1019.5 2.8 21.0 28.0 44.1 115.8 111.1 382.4
14 21:50 11 92 9.21 9.8 13 15 1019.4 2.8 21.0 28.0 44.1 115.8 111.1 382.3
14 21:40 10.9 92 9.15 9.7 13 15 1019.4 2.8 20.9 27.9 43.9 115.3 110.4 379.9
14 21:30 11.4 92 9.44 10.1 13 13 1019.3 2.8 21.5 28.3 44.9 117.8 113.7 391.7
14 21:20 11.7 92 9.62 10.4 13 13 1019.2 2.8 21.9 28.5 45.5 119.4 115.8 399.0
14 21:10 11.8 92 9.68 10.5 13 13 1019.2 2.8 22.0 28.6 45.7 120.0 116.5 401.5
14 21:00 12 92 9.81 10.7 13 15 1019.2 2.8 22.3 28.7 46.1 121.2 118.0 406.9
14 20:50 12 92 9.81 10.7 13 13 1019.3 2.8 22.3 28.7 46.1 121.2 118.0 406.9
14 20:40 12.3 92 9.99 11 13 15 1019.2 2.8 22.6 28.9 46.7 122.8 120.1 414.2
14 20:30 12.6 92 10.18 11.3 11 13 1019.2 2.8 23.0 29.2 47.3 124.5 122.4 422.0
14 20:20 13 92 10.43 11.7 11 11 1019.2 2.8 23.5 29.5 48.2 126.7 125.3 432.3
14 20:10 13.4 92 10.7 12.1 9 11 1019.1 2.8 24.1 29.8 49.1 129.2 128.5 443.5
14 20:00 13.5 92 10.76 12.2 17 20 1019 2.8 24.2 29.9 49.3 129.7 129.2 445.9
14 19:50 13.5 92 10.76 12.2 19 20 1018.9 2.4 24.2 29.9 49.3 129.7 129.1 445.9
14 19:40 13.2 91 10.45 11.8 17 20 1018.6 2 23.6 29.4 48.1 126.6 125.2 432.0
14 19:30 12.8 90 10.08 11.2 13 17 1018.5 2 22.8 28.9 46.8 122.9 120.5 415.8
14 19:20 13 90 10.21 11.4 15 15 1018.3 2 23.1 29.0 47.2 124.1 122.1 421.1
14 19:10 13.3 90 10.4 11.7 17 20 1018.3 2 23.5 29.3 47.8 125.8 124.3 428.8
14 19:00 13.1 90 10.27 11.5 17 20 1018.2 2 23.2 29.1 47.4 124.6 122.7 423.5
14 18:50 13.2 90 10.33 11.6 17 19 1018.1 2 23.3 29.2 47.6 125.1 123.4 425.8
14 18:40 13.3 89 10.28 11.5 15 17 1018 2 23.2 29.0 47.3 124.4 122.5 422.8
14 18:30 13.6 89 10.47 11.8 22 26 1018 2 23.6 29.3 47.9 126.1 124.7 430.5
14 18:20 13.9 89 10.67 12.1 24 26 1017.7 2 24.0 29.5 48.6 127.9 127.1 438.7
14 18:10 13.8 90 10.72 12.2 22 24 1017.7 2 24.1 29.6 48.9 128.6 127.9 441.7
14 18:00 13.7 89 10.54 11.9 20 26 1017.6 2 23.7 29.4 48.2 126.7 125.5 433.3
14 17:50 14.2 88 10.75 12.2 26 30 1017.7 2 24.2 29.6 48.8 128.3 127.7 440.9
14 17:40 14.5 84 10.45 11.8 20 24 1017.5 1.8 23.5 28.9 47.3 124.3 123.0 424.4
14 17:30 14.5 83 10.32 11.7 20 26 1017.3 1.8 23.2 28.7 46.7 122.8 121.1 418.0
14 17:20 14.7 83 10.45 11.8 20 24 1017.3 1.8 23.5 28.9 47.1 124.0 122.6 423.3
14 17:10 14.9 83 10.58 12 24 28 1017.2 1.8 23.8 29.0 47.6 125.1 124.1 428.5
14 17:00 14.9 85 10.83 12.4 28 33 1017.1 1.8 24.3 29.4 48.6 128.0 127.6 440.7
14 16:50 14.9 85 10.83 12.4 26 30 1016.9 1.8 24.3 29.4 48.6 128.0 127.6 440.6
14 16:40 15.3 81 10.58 12.1 33 39 1016.8 1.8 23.7 28.9 47.3 124.4 123.4 426.1
14 16:30 15.8 79 10.63 12.2 30 43 1016.6 1.8 23.8 28.8 47.2 124.2 123.3 425.7
14 16:20 17.1 71 10.33 11.8 30 33 1016.5 1.8 23.1 27.8 45.2 118.8 117.2 404.5
14 16:10 17.7 60 9.05 9.8 35 43 1016.4 1.8 20.4 25.6 39.8 104.4 99.5 343.0
14 16:00 17.8 62 9.41 10.4 35 43 1016.3 1.8 21.1 26.1 41.1 108.0 104.0 358.7
14 15:50 18.3 60 9.38 10.4 33 43 1016.2 1.8 21.0 25.9 40.7 107.0 103.0 355.0
14 15:40 18.5 60 9.49 10.6 32 37 1016.1 1.8 21.2 26.1 41.1 107.8 104.1 359.0
14 15:30 18.2 60 9.33 10.3 35 48 1015.9 1.8 20.9 25.9 40.6 106.6 102.4 353.2
14 15:20 18.3 58 9.07 9.9 41 44 1015.8 1.8 20.4 25.4 39.5 103.7 99.0 341.1
14 15:10 18.4 59 9.28 10.3 35 43 1015.8 1.8 20.8 25.7 40.3 105.8 101.5 350.0
14 15:00 18.6 61 9.71 10.9 33 43 1015.7 1.8 21.7 26.4 41.8 109.9 106.8 368.3
14 14:50 18.4 60 9.44 10.5 30 35 1015.7 1.8 21.1 26.0 40.9 107.4 103.6 357.1
14 14:40 18.2 62 9.64 10.8 37 43 1015.7 1.8 21.6 26.4 41.8 109.8 106.4 367.0
14 14:30 18.3 60 9.38 10.4 37 46 1015.7 1.8 21.0 25.9 40.7 106.9 102.9 354.9
14 14:20 18.7 66 10.57 12.2 30 35 1015.6 1.8 23.5 27.7 45.2 118.9 117.8 407.1
14 14:10 18 66 10.14 11.6 37 44 1015.7 1.8 22.7 27.2 43.9 115.4 113.2 390.8
14 14:00 18.3 64 10.01 11.4 35 46 1015.6 1.8 22.4 26.9 43.2 113.5 111.1 383.4
14 13:50 17.9 69 10.53 12.1 30 37 1015.6 1.8 23.5 27.9 45.5 119.7 118.5 409.4
14 13:40 17.5 70 10.44 12 37 43 1015.7 1.8 23.3 27.9 45.4 119.3 117.9 407.3
14 13:30 17.2 77 11.28 13.1 32 41 1015.7 1.8 25.1 29.4 49.0 129.1 129.9 449.0
14 13:20 17 81 11.72 13.7 32 37 1015.9 1.8 26.1 30.2 51.1 134.5 136.4 471.7
14 13:10 16.2 85 11.72 13.7 30 33 1015.9 1.8 26.1 30.5 51.6 135.9 137.8 476.6
14 13:00 15.8 86 11.58 13.5 32 39 1016.1 1.8 25.9 30.4 51.2 135.0 136.6 472.2
14 12:50 15.4 89 11.69 13.6 32 39 1016.2 1.8 26.1 30.7 52.0 137.0 138.9 480.2
14 12:40 14.8 90 11.4 13.2 28 30 1016.5 1.8 25.5 30.4 51.1 134.7 135.8 469.4
14 12:30 14.6 86 10.76 12.3 39 57 1016.6 1.8 24.2 29.4 48.5 127.6 127.1 438.8
14 12:20 17.4 70 10.37 11.9 30 35 1016.4 0.2 23.2 27.8 45.2 118.8 117.2 404.8
14 12:10 17.9 72 10.99 12.8 32 37 1016.4 0.2 24.5 28.7 47.4 124.8 124.8 431.4
14 12:00 16.6 78 11.02 12.8 26 35 1016.6 0.2 24.6 29.2 48.4 127.3 127.4 440.1
14 11:50 16.3 79 10.96 12.7 32 35 1016.8 0.2 24.5 29.2 48.3 127.1 127.1 439.0
14 11:40 16.1 81 11.1 12.8 28 32 1016.9 0.2 24.8 29.5 49.0 129.0 129.4 447.0
14 11:30 15.8 85 11.44 13.3 35 44 1017 0.2 25.6 30.2 50.7 133.5 134.7 465.5
14 11:20 16.8 73 10.44 11.9 35 41 1016.9 0 23.4 28.1 45.8 120.5 119.1 411.4
14 11:10 17.2 72 10.54 12.1 30 33 1016.9 0 23.5 28.2 46.0 121.0 119.9 414.0
14 11:00 17 74 10.71 12.3 28 35 1017 0 23.9 28.5 46.8 123.2 122.5 423.2
14 10:50 17.3 73 10.75 12.4 26 33 1017.1 0 24.0 28.5 46.8 123.2 122.6 423.5
14 10:40 17.5 74 11.03 12.8 28 33 1017.1 0 24.6 28.9 47.9 126.0 126.1 435.7
14 10:30 16.7 74 10.52 12 32 37 1017.2 0 23.5 28.3 46.2 121.6 120.4 415.8
14 10:20 16.3 75 10.4 11.9 32 37 1017.1 0 23.3 28.2 46.0 120.9 119.4 412.2
14 10:10 16.4 76 10.61 12.2 32 35 1017 0 23.7 28.6 46.8 123.1 122.1 421.6
14 10:00 16.1 79 10.83 12.5 30 39 1017 0 24.2 29.0 47.9 126.0 125.6 433.9
14 09:50 16.2 81 11.17 12.9 24 32 1016.9 0 24.9 29.6 49.3 129.7 130.2 449.8
14 09:40 15.5 83 10.97 12.6 30 35 1016.8 0 24.6 29.5 48.8 128.5 128.5 444.0
14 09:30 15 85 10.9 12.5 32 35 1016.8 0 24.4 29.5 48.9 128.6 128.4 443.5
14 09:20 14.6 87 10.89 12.5 30 35 1016.8 0 24.4 29.6 49.1 129.1 128.9 445.3
14 09:10 14.4 87 10.75 12.3 22 26 1016.7 0 24.2 29.4 48.6 127.8 127.3 439.5
14 09:00 14.2 88 10.75 12.2 28 35 1016.5 0 24.2 29.5 48.7 128.1 127.6 440.5
14 08:50 14 89 10.74 12.2 26 30 1016.4 1.4 24.2 29.6 48.8 128.3 127.8 441.1
14 08:40 13.8 90 10.72 12.2 28 32 1016.3 1.4 24.1 29.6 48.8 128.4 127.8 441.3
14 08:30 13.5 90 10.53 11.9 28 33 1016.2 1.4 23.7 29.3 48.2 126.7 125.6 433.5
14 08:20 13.5 91 10.64 12.1 28 33 1016.2 1.4 24.0 29.5 48.6 128.0 127.2 439.0
14 08:10 13 91 10.32 11.6 22 26 1016.2 1.4 23.3 29.1 47.6 125.1 123.4 425.8
14 08:00 12.8 91 10.19 11.4 20 24 1016.2 1.4 23.0 29.0 47.1 123.9 121.9 420.5

Last Refresh: 15-Jun-2024 00:42:14

Bureau of Meteorology